aviador You're here:

KCVW Decoded Metar

in
Report Time2017-06-25 13:35:00
UTC Time2017-06-25 13:45:52
Flight Rules vfr VFR
Wind050° at 05 kt
W.Rank050° ranks 11
Current wind is below 050° avg. (7.5)
Visibility9999 m
Phenomena:N/A
Clouds:Few 014 Hf
Expected CloudBase > 800 ft AGL from Temp-Dew spread
CeilingNone
Temp27°C
Dew Point25°C (89% RH)
Heat Index30.6°C
QNH1020 hPa
Raw Report
METAR KCVW 251335Z AUTO 05005KT 10SM FEW014 27/25 A3012 RMK A01=

Extra information for KCVW:More info

Social comments